createdAt,value
2018-02-22T00:01:26.888Z,0.50
2018-02-22T00:03:54.482Z,0.40
2018-02-22T00:06:22.016Z,0.40
2018-02-22T00:08:49.604Z,0.40
2018-02-22T00:11:17.131Z,0.40
2018-02-22T00:13:44.686Z,0.40
2018-02-22T00:16:12.234Z,0.40
2018-02-22T00:18:40.560Z,0.40
2018-02-22T00:21:08.137Z,0.40
2018-02-22T00:23:35.719Z,0.40
2018-02-22T00:26:03.223Z,0.40
2018-02-22T00:28:31.542Z,0.30
2018-02-22T00:30:59.072Z,0.30
2018-02-22T00:33:26.624Z,0.30
2018-02-22T00:35:54.912Z,0.20
2018-02-22T00:38:22.473Z,0.20
2018-02-22T00:40:50.021Z,0.20
2018-02-22T00:43:17.547Z,0.10
2018-02-22T00:45:45.142Z,0.10
2018-02-22T00:48:12.671Z,0.10
2018-02-22T00:50:40.279Z,0.00
2018-02-22T00:53:07.834Z,0.00
2018-02-22T00:55:35.388Z,-0.10
2018-02-22T00:58:02.977Z,-0.10
2018-02-22T01:00:30.492Z,-0.10
2018-02-22T01:02:58.771Z,-0.10
2018-02-22T01:05:26.356Z,-0.10
2018-02-22T01:07:53.899Z,-0.20
2018-02-22T01:10:21.548Z,-0.20
2018-02-22T01:12:49.107Z,-0.20
2018-02-22T01:15:16.668Z,-0.20
2018-02-22T01:17:45.897Z,-0.20
2018-02-22T01:20:13.534Z,-0.20
2018-02-22T01:22:41.064Z,-0.30
2018-02-22T01:25:08.627Z,-0.30
2018-02-22T01:27:36.216Z,-0.30
2018-02-22T01:30:03.756Z,-0.40
2018-02-22T01:32:32.041Z,-0.40
2018-02-22T01:35:00.361Z,-0.30
2018-02-22T01:37:27.899Z,-0.40
2018-02-22T01:39:55.460Z,-0.40
2018-02-22T01:42:22.981Z,-0.40
2018-02-22T01:44:51.295Z,-0.40
2018-02-22T01:47:18.822Z,-0.40
2018-02-22T01:49:47.172Z,-0.50
2018-02-22T01:52:14.688Z,-0.50
2018-02-22T01:54:42.256Z,-0.50
2018-02-22T01:57:09.805Z,-0.50
2018-02-22T01:59:37.343Z,-0.50
2018-02-22T02:02:05.622Z,-0.50
2018-02-22T02:04:34.006Z,-0.50
2018-02-22T02:07:01.559Z,-0.50
2018-02-22T02:09:29.852Z,-0.50
2018-02-22T02:11:57.384Z,-0.60
2018-02-22T02:14:25.698Z,-0.50
2018-02-22T02:16:53.223Z,-0.50
2018-02-22T02:19:21.555Z,-0.50
2018-02-22T02:21:49.081Z,-0.50
2018-02-22T02:24:16.640Z,-0.50
2018-02-22T02:26:44.143Z,-0.50
2018-02-22T02:29:11.675Z,-0.50
2018-02-22T02:31:39.204Z,-0.50
2018-02-22T02:34:06.746Z,-0.50
2018-02-22T02:36:35.349Z,-0.40
2018-02-22T02:39:02.872Z,-0.40
2018-02-22T02:41:30.396Z,-0.30
2018-02-22T02:43:57.951Z,-0.30
2018-02-22T02:46:25.470Z,-0.40
2018-02-22T02:48:53.795Z,-0.40
2018-02-22T02:51:21.325Z,-0.40
2018-02-22T02:53:48.871Z,-0.50
2018-02-22T02:56:17.159Z,-0.50
2018-02-22T02:58:44.724Z,-0.50
2018-02-22T03:01:12.240Z,-0.50
2018-02-22T03:03:39.774Z,-0.60
2018-02-22T03:06:07.289Z,-0.60
2018-02-22T03:08:34.827Z,-0.60
2018-02-22T03:11:02.430Z,-0.70
2018-02-22T03:13:30.026Z,-0.60
2018-02-22T03:15:57.642Z,-0.60
2018-02-22T03:18:25.181Z,-0.50
2018-02-22T03:20:53.493Z,-0.60
2018-02-22T03:23:21.046Z,-0.70
2018-02-22T03:25:48.554Z,-0.60
2018-02-22T03:28:16.148Z,-0.60
2018-02-22T03:30:43.677Z,-0.70
2018-02-22T03:33:11.217Z,-0.60
2018-02-22T03:35:38.741Z,-0.60
2018-02-22T03:38:06.288Z,-0.60
2018-02-22T03:40:33.806Z,-0.50
2018-02-22T03:43:01.367Z,-0.50
2018-02-22T03:45:29.072Z,-0.50
2018-02-22T03:47:56.653Z,-0.40
2018-02-22T03:50:24.171Z,-0.40
2018-02-22T03:52:52.560Z,-0.40
2018-02-22T03:55:20.124Z,-0.40
2018-02-22T03:57:47.664Z,-0.40
2018-02-22T04:00:15.944Z,-0.40
2018-02-22T04:02:44.239Z,-0.50
2018-02-22T04:05:11.763Z,-0.50
2018-02-22T04:07:40.158Z,-0.50
2018-02-22T04:10:08.564Z,-0.50
2018-02-22T04:12:36.093Z,-0.50
2018-02-22T04:15:04.382Z,-0.40
2018-02-22T04:17:31.946Z,-0.50
2018-02-22T04:19:59.460Z,-0.30
2018-02-22T04:22:26.996Z,-0.30
2018-02-22T04:24:54.626Z,-0.30
2018-02-22T04:27:22.169Z,-0.30
2018-02-22T04:29:50.532Z,-0.30
2018-02-22T04:32:18.129Z,-0.30
2018-02-22T04:34:45.640Z,-0.30
2018-02-22T04:37:13.182Z,-0.30
2018-02-22T04:39:40.715Z,-0.30
2018-02-22T04:42:08.339Z,-0.40
2018-02-22T04:44:36.635Z,-0.50
2018-02-22T04:47:04.138Z,-0.50
2018-02-22T04:49:31.750Z,-0.60
2018-02-22T04:51:59.331Z,-0.60
2018-02-22T04:54:26.971Z,-0.70
2018-02-22T04:56:54.541Z,-0.70
2018-02-22T04:59:22.148Z,-0.80
2018-02-22T05:01:49.668Z,-0.80
2018-02-22T05:04:17.322Z,-0.80
2018-02-22T05:06:44.844Z,-0.90
2018-02-22T05:09:12.398Z,-0.90
2018-02-22T05:11:39.897Z,-0.90
2018-02-22T05:14:07.466Z,-1.00
2018-02-22T05:16:35.729Z,-1.00
2018-02-22T05:19:03.264Z,-1.00
2018-02-22T05:21:31.623Z,-1.10
2018-02-22T05:23:59.241Z,-1.10
2018-02-22T05:26:26.778Z,-1.00
2018-02-22T05:28:54.376Z,-1.00
2018-02-22T05:31:22.009Z,-1.10
2018-02-22T05:33:49.519Z,-1.10
2018-02-22T05:36:17.065Z,-1.10
2018-02-22T05:38:44.601Z,-1.10
2018-02-22T05:41:12.144Z,-1.10
2018-02-22T05:43:39.666Z,-1.10
2018-02-22T05:46:07.198Z,-1.10
2018-02-22T05:48:34.717Z,-1.10
2018-02-22T05:51:02.253Z,-1.10
2018-02-22T05:53:30.630Z,-1.00
2018-02-22T05:55:58.940Z,-1.10
2018-02-22T05:58:26.452Z,-1.10
2018-02-22T06:00:54.012Z,-1.10
2018-02-22T06:03:21.523Z,-1.10
2018-02-22T06:05:49.070Z,-1.10
2018-02-22T06:08:16.578Z,-1.10
2018-02-22T06:10:44.124Z,-1.10
2018-02-22T06:13:11.788Z,-1.10
2018-02-22T06:15:39.351Z,-1.10
2018-02-22T06:18:06.877Z,-1.10
2018-02-22T06:20:34.528Z,-1.00
2018-02-22T06:23:02.121Z,-1.00
2018-02-22T06:25:29.672Z,-0.60
2018-02-22T06:27:57.185Z,-0.80
2018-02-22T06:30:25.491Z,-0.80
2018-02-22T06:32:53.027Z,-0.80
2018-02-22T06:35:20.550Z,-0.80
2018-02-22T06:37:48.105Z,-0.80
2018-02-22T06:40:15.711Z,-0.80
2018-02-22T06:42:43.274Z,-0.70
2018-02-22T06:45:10.825Z,-0.60
2018-02-22T06:47:39.236Z,-0.30
2018-02-22T06:50:06.788Z,-0.30
2018-02-22T06:52:34.303Z,-0.30
2018-02-22T06:55:02.609Z,-0.30
2018-02-22T06:57:30.172Z,-0.40
2018-02-22T06:59:57.700Z,-0.40
2018-02-22T07:02:25.996Z,-0.50
2018-02-22T07:04:54.307Z,-0.40
2018-02-22T07:07:21.803Z,-0.50
2018-02-22T07:09:49.366Z,-0.40
2018-02-22T07:12:16.964Z,-0.20
2018-02-22T07:14:44.504Z,0.20
2018-02-22T07:17:12.785Z,1.40
2018-02-22T07:19:41.096Z,1.90
2018-02-22T07:22:08.609Z,1.90
2018-02-22T07:24:37.011Z,2.60
2018-02-22T07:27:04.519Z,2.60
2018-02-22T07:29:32.828Z,3.50
2018-02-22T07:32:01.136Z,3.70
2018-02-22T07:34:28.661Z,3.60
2018-02-22T07:36:56.963Z,4.40
2018-02-22T07:39:24.488Z,4.40
2018-02-22T07:41:52.786Z,4.90
2018-02-22T07:44:20.330Z,4.90
2018-02-22T07:46:48.592Z,5.60
2018-02-22T07:49:16.116Z,5.60
2018-02-22T07:51:43.633Z,5.70
2018-02-22T07:54:11.161Z,6.00
2018-02-22T07:56:39.627Z,6.40
2018-02-22T07:59:07.173Z,6.40
2018-02-22T08:01:34.816Z,6.90
2018-02-22T08:04:02.385Z,7.40
2018-02-22T08:06:29.898Z,7.80
2018-02-22T08:08:58.199Z,8.40
2018-02-22T08:11:25.720Z,8.40
2018-02-22T08:13:53.260Z,8.30
2018-02-22T08:16:20.878Z,9.00
2018-02-22T08:18:49.158Z,9.20
2018-02-22T08:21:16.676Z,9.30
2018-02-22T08:23:45.028Z,9.90
2018-02-22T08:26:12.532Z,9.80
2018-02-22T08:28:49.995Z,10.00
2018-02-22T08:31:17.515Z,10.30
2018-02-22T08:33:45.145Z,10.50
2018-02-22T08:36:12.669Z,10.30
2018-02-22T08:38:40.237Z,10.10
2018-02-22T08:41:08.535Z,10.20
2018-02-22T08:43:36.073Z,10.20
2018-02-22T08:46:04.366Z,11.50
2018-02-22T08:48:31.940Z,11.50
2018-02-22T08:50:59.467Z,10.90
2018-02-22T08:53:27.775Z,9.50
2018-02-22T08:55:55.289Z,9.50
2018-02-22T08:58:22.819Z,8.80
2018-02-22T09:00:50.352Z,8.60
2018-02-22T09:03:17.900Z,8.80
2018-02-22T09:05:45.504Z,8.60
2018-02-22T09:08:13.106Z,9.00
2018-02-22T09:10:41.398Z,9.10
2018-02-22T09:13:08.944Z,9.10
2018-02-22T09:15:36.466Z,9.20
2018-02-22T09:18:04.071Z,9.60
2018-02-22T09:20:31.611Z,9.50
2018-02-22T09:22:59.919Z,9.40
2018-02-22T09:25:27.468Z,9.40
2018-02-22T09:27:54.984Z,10.40
2018-02-22T09:30:22.576Z,9.10
2018-02-22T09:32:50.136Z,8.80
2018-02-22T09:35:17.666Z,9.10
2018-02-22T09:37:45.972Z,9.70
2018-02-22T09:40:13.501Z,9.70
2018-02-22T09:42:41.777Z,9.90
2018-02-22T09:45:10.084Z,10.00
2018-02-22T09:47:37.645Z,10.00
2018-02-22T09:50:05.357Z,10.20
2018-02-22T09:52:32.970Z,9.60
2018-02-22T09:55:00.632Z,9.70
2018-02-22T09:57:28.204Z,9.70
2018-02-22T09:59:55.784Z,9.60
2018-02-22T10:02:23.299Z,9.70
2018-02-22T10:04:50.834Z,9.10
2018-02-22T10:07:19.198Z,9.10
2018-02-22T10:09:46.756Z,9.10
2018-02-22T10:12:14.279Z,9.10
2018-02-22T10:14:41.841Z,9.40
2018-02-22T10:17:09.403Z,9.70
2018-02-22T10:19:36.961Z,9.10
2018-02-22T10:22:04.556Z,9.00
2018-02-22T10:24:32.876Z,8.90
2018-02-22T10:27:00.451Z,8.90
2018-02-22T10:29:27.977Z,9.50
2018-02-22T10:31:55.496Z,9.80
2018-02-22T10:34:23.068Z,10.10
2018-02-22T10:36:51.430Z,10.50
2018-02-22T10:39:19.740Z,9.30
2018-02-22T10:41:47.319Z,9.20
2018-02-22T10:44:14.858Z,9.00
2018-02-22T10:46:42.430Z,9.40
2018-02-22T10:49:10.814Z,10.20
2018-02-22T10:51:38.331Z,10.20
2018-02-22T10:54:05.941Z,10.00
2018-02-22T10:56:33.443Z,9.90
2018-02-22T10:59:00.976Z,9.30
2018-02-22T11:01:34.097Z,9.40
2018-02-22T11:04:01.648Z,9.60
2018-02-22T11:06:29.306Z,9.10
2018-02-22T11:08:56.922Z,8.80
2018-02-22T11:11:24.452Z,8.70
2018-02-22T11:13:52.829Z,8.40
2018-02-22T11:16:20.395Z,8.40
2018-02-22T11:18:48.702Z,8.40
2018-02-22T11:21:16.228Z,8.40
2018-02-22T11:23:44.580Z,8.20
2018-02-22T11:26:12.153Z,8.10
2018-02-22T11:28:40.487Z,8.40
2018-02-22T11:31:08.015Z,8.40
2018-02-22T11:33:35.600Z,8.10
2018-02-22T11:36:03.118Z,8.50
2018-02-22T11:38:31.539Z,8.40
2018-02-22T11:40:59.091Z,8.40
2018-02-22T11:43:26.725Z,8.50
2018-02-22T11:45:54.254Z,8.30
2018-02-22T11:48:21.806Z,8.50
2018-02-22T11:50:49.422Z,8.60
2018-02-22T11:53:16.979Z,8.40
2018-02-22T11:55:44.594Z,8.30
2018-02-22T11:58:12.145Z,7.80
2018-02-22T12:00:39.707Z,7.30
2018-02-22T12:03:07.240Z,6.90
2018-02-22T12:05:34.796Z,7.20
2018-02-22T12:08:02.346Z,7.10
2018-02-22T12:10:29.870Z,6.80
2018-02-22T12:12:58.196Z,6.80
2018-02-22T12:15:25.724Z,6.80
2018-02-22T12:17:53.272Z,6.70
2018-02-22T12:20:21.583Z,6.40
2018-02-22T12:22:49.244Z,6.40
2018-02-22T12:25:16.800Z,6.40
2018-02-22T12:27:44.966Z,6.20
2018-02-22T12:30:12.557Z,6.10
2018-02-22T12:32:40.841Z,5.80
2018-02-22T12:35:08.936Z,5.80
2018-02-22T12:37:38.499Z,5.80
2018-02-22T12:40:06.041Z,5.80
2018-02-22T12:42:33.548Z,5.80
2018-02-22T12:45:01.104Z,5.60
2018-02-22T12:47:28.616Z,5.60
2018-02-22T12:49:56.155Z,5.50
2018-02-22T12:52:23.664Z,5.40
2018-02-22T12:54:51.204Z,5.60
2018-02-22T12:57:18.749Z,5.60
2018-02-22T12:59:46.327Z,5.70
2018-02-22T13:02:13.905Z,5.70
2018-02-22T13:04:41.446Z,5.60
2018-02-22T13:07:08.969Z,5.50
2018-02-22T13:09:37.286Z,5.40
2018-02-22T13:12:04.813Z,5.40
2018-02-22T13:14:32.343Z,5.40
2018-02-22T13:17:00.765Z,5.20
2018-02-22T13:19:28.322Z,5.20
2018-02-22T13:21:55.868Z,5.20
2018-02-22T13:24:23.408Z,5.20
2018-02-22T13:26:50.938Z,5.30
2018-02-22T13:29:19.823Z,5.40
2018-02-22T13:31:47.355Z,5.30
2018-02-22T13:34:26.842Z,5.30
2018-02-22T13:36:54.384Z,5.30
2018-02-22T13:39:22.032Z,5.20
2018-02-22T13:41:49.557Z,5.00
2018-02-22T13:44:28.926Z,5.10
2018-02-22T13:46:56.443Z,5.20
2018-02-22T13:49:35.823Z,5.10
2018-02-22T13:52:03.395Z,5.10
2018-02-22T13:54:31.016Z,5.10
2018-02-22T13:57:08.350Z,5.10
2018-02-22T13:59:35.883Z,4.90
2018-02-22T14:02:15.370Z,5.10
2018-02-22T14:04:43.782Z,5.10
2018-02-22T14:07:11.348Z,5.00
2018-02-22T14:09:39.023Z,5.00
2018-02-22T14:12:06.576Z,5.00
2018-02-22T14:14:34.219Z,5.00
2018-02-22T14:17:01.736Z,5.00
2018-02-22T14:19:29.352Z,5.00
2018-02-22T14:21:56.883Z,4.90
2018-02-22T14:24:25.283Z,4.90
2018-02-22T14:26:52.833Z,4.90
2018-02-22T14:29:20.350Z,5.00
2018-02-22T14:31:48.068Z,5.00
2018-02-22T14:34:15.628Z,5.00
2018-02-22T14:36:43.159Z,5.10
2018-02-22T14:39:11.446Z,5.20
2018-02-22T14:41:39.003Z,5.20
2018-02-22T14:44:06.526Z,5.10
2018-02-22T14:46:34.050Z,5.00
2018-02-22T14:49:01.600Z,5.00
2018-02-22T14:51:29.225Z,5.00
2018-02-22T14:53:57.740Z,4.80
2018-02-22T14:56:25.297Z,4.80
2018-02-22T14:58:52.833Z,4.80
2018-02-22T15:01:21.152Z,4.80
2018-02-22T15:03:48.660Z,4.80
2018-02-22T15:06:17.570Z,4.70
2018-02-22T15:08:46.103Z,4.70
2018-02-22T15:11:13.717Z,4.70
2018-02-22T15:13:41.218Z,4.70
2018-02-22T15:16:08.796Z,4.80
2018-02-22T15:18:36.313Z,4.70
2018-02-22T15:21:04.037Z,4.70
2018-02-22T15:23:32.396Z,4.60
2018-02-22T15:26:00.063Z,4.50
2018-02-22T15:28:27.622Z,4.50
2018-02-22T15:30:56.046Z,4.40
2018-02-22T15:33:23.697Z,4.40
2018-02-22T15:35:51.268Z,4.40
2018-02-22T15:38:18.839Z,4.40
2018-02-22T15:40:46.376Z,4.40
2018-02-22T15:43:14.024Z,4.30
2018-02-22T15:45:41.597Z,4.30
2018-02-22T15:48:09.179Z,4.30
2018-02-22T15:50:36.706Z,4.30
2018-02-22T15:53:04.284Z,4.40
2018-02-22T15:55:31.860Z,4.40
2018-02-22T15:57:59.455Z,4.40
2018-02-22T16:00:26.986Z,4.40
2018-02-22T16:02:54.523Z,4.40
2018-02-22T16:05:22.062Z,4.50
2018-02-22T16:07:49.596Z,4.90
2018-02-22T16:10:17.171Z,4.70
2018-02-22T16:12:45.516Z,4.30
2018-02-22T16:15:13.051Z,4.20
2018-02-22T16:17:40.619Z,4.20
2018-02-22T16:20:08.144Z,4.10
2018-02-22T16:22:35.671Z,4.10
2018-02-22T16:25:03.275Z,4.00
2018-02-22T16:27:30.815Z,4.00
2018-02-22T16:29:58.394Z,3.80
2018-02-22T16:32:25.964Z,3.80
2018-02-22T16:34:53.490Z,3.70
2018-02-22T16:37:21.819Z,3.60
2018-02-22T16:39:49.373Z,3.60
2018-02-22T16:42:16.973Z,3.50
2018-02-22T16:44:45.259Z,3.50
2018-02-22T16:47:13.593Z,3.50
2018-02-22T16:49:41.094Z,3.50
2018-02-22T16:52:09.397Z,3.50
2018-02-22T16:54:37.011Z,3.40
2018-02-22T16:57:04.571Z,3.40
2018-02-22T16:59:32.106Z,3.40
2018-02-22T17:01:59.659Z,3.40
2018-02-22T17:04:27.195Z,3.30
2018-02-22T17:06:54.811Z,3.30
2018-02-22T17:09:23.106Z,3.20
2018-02-22T17:11:51.498Z,3.20
2018-02-22T17:14:19.031Z,3.20
2018-02-22T17:16:47.352Z,3.20
2018-02-22T17:19:14.889Z,3.10
2018-02-22T17:21:42.483Z,3.10
2018-02-22T17:24:09.996Z,3.10
2018-02-22T17:26:43.880Z,2.90
2018-02-22T17:29:16.926Z,2.90
2018-02-22T17:31:50.146Z,2.90
2018-02-22T17:34:17.688Z,2.90
2018-02-22T17:36:49.860Z,2.90
2018-02-22T17:39:23.079Z,2.90
2018-02-22T17:41:51.447Z,2.80
2018-02-22T17:44:18.985Z,2.80
2018-02-22T17:46:46.548Z,2.80
2018-02-22T17:49:14.056Z,2.80
2018-02-22T17:51:42.367Z,2.70
2018-02-22T17:54:09.934Z,2.70
2018-02-22T17:56:37.486Z,2.80
2018-02-22T17:59:05.058Z,2.70
2018-02-22T18:01:32.608Z,2.70
2018-02-22T18:04:01.144Z,2.70
2018-02-22T18:06:29.443Z,2.60
2018-02-22T18:08:56.990Z,2.60
2018-02-22T18:11:25.356Z,2.50
2018-02-22T18:13:52.963Z,2.50
2018-02-22T18:16:20.553Z,2.50
2018-02-22T18:18:49.145Z,2.40
2018-02-22T18:21:16.734Z,2.40
2018-02-22T18:23:46.502Z,2.40
2018-02-22T18:26:14.065Z,2.40
2018-02-22T18:28:43.281Z,2.40
2018-02-22T18:31:10.836Z,2.30
2018-02-22T18:33:38.434Z,2.30
2018-02-22T18:36:06.051Z,2.30
2018-02-22T18:38:39.259Z,2.30
2018-02-22T18:41:06.795Z,2.30
2018-02-22T18:43:40.110Z,2.20
2018-02-22T18:46:07.711Z,2.20
2018-02-22T18:48:35.234Z,2.20
2018-02-22T18:51:02.840Z,2.20
2018-02-22T18:53:30.440Z,2.20
2018-02-22T18:55:57.989Z,2.20
2018-02-22T18:58:25.520Z,2.20
2018-02-22T19:00:53.046Z,2.20
2018-02-22T19:03:21.350Z,2.10
2018-02-22T19:05:50.270Z,2.10
2018-02-22T19:08:17.804Z,2.00
2018-02-22T19:10:45.353Z,2.00
2018-02-22T19:13:12.882Z,2.00
2018-02-22T19:15:41.228Z,1.90
2018-02-22T19:18:08.809Z,1.90
2018-02-22T19:20:36.415Z,1.90
2018-02-22T19:23:03.940Z,1.90
2018-02-22T19:25:32.263Z,1.80
2018-02-22T19:27:59.917Z,1.80
2018-02-22T19:30:27.702Z,1.90
2018-02-22T19:32:55.414Z,1.80
2018-02-22T19:35:23.757Z,1.90
2018-02-22T19:37:51.263Z,1.80
2018-02-22T19:40:18.816Z,1.80
2018-02-22T19:42:46.390Z,1.80
2018-02-22T19:45:14.098Z,1.70
2018-02-22T19:47:41.730Z,1.60
2018-02-22T19:50:09.255Z,1.50
2018-02-22T19:52:37.547Z,1.50
2018-02-22T19:55:05.105Z,1.40
2018-02-22T19:57:42.608Z,1.40
2018-02-22T20:00:10.328Z,1.40
2018-02-22T20:02:37.899Z,1.30
2018-02-22T20:05:06.293Z,1.30
2018-02-22T20:07:33.855Z,1.30
2018-02-22T20:10:01.990Z,1.30
2018-02-22T20:12:29.520Z,1.20
2018-02-22T20:14:57.101Z,1.20
2018-02-22T20:17:24.638Z,1.20
2018-02-22T20:19:52.235Z,1.30
2018-02-22T20:22:20.528Z,1.20
2018-02-22T20:24:48.988Z,1.30
2018-02-22T20:27:16.547Z,1.30
2018-02-22T20:29:44.141Z,1.30
2018-02-22T20:32:11.663Z,1.30
2018-02-22T20:34:39.229Z,1.20
2018-02-22T20:37:06.818Z,1.20
2018-02-22T20:39:35.111Z,1.20
2018-02-22T20:42:03.203Z,1.20
2018-02-22T20:44:30.757Z,1.20
2018-02-22T20:47:09.174Z,1.20
2018-02-22T20:49:36.730Z,1.10
2018-02-22T20:52:04.239Z,1.10
2018-02-22T20:54:32.661Z,1.10
2018-02-22T20:57:00.169Z,1.10
2018-02-22T20:59:27.812Z,1.00
2018-02-22T21:01:55.393Z,1.00
2018-02-22T21:04:22.939Z,1.00
2018-02-22T21:06:50.555Z,1.10
2018-02-22T21:09:18.085Z,1.10
2018-02-22T21:11:47.571Z,1.10
2018-02-22T21:14:15.097Z,1.00
2018-02-22T21:16:42.666Z,1.00
2018-02-22T21:19:10.245Z,1.00
2018-02-22T21:21:37.797Z,1.00
2018-02-22T21:24:05.553Z,1.00
2018-02-22T21:26:35.016Z,1.00
2018-02-22T21:29:02.637Z,0.90
2018-02-22T21:31:30.172Z,0.90
2018-02-22T21:33:57.756Z,1.00
2018-02-22T21:36:25.295Z,1.00
2018-02-22T21:38:52.844Z,1.00
2018-02-22T21:41:20.447Z,1.00
2018-02-22T21:43:48.802Z,0.90
2018-02-22T21:46:16.339Z,0.80
2018-02-22T21:48:43.915Z,0.90
2018-02-22T21:51:11.443Z,0.80
2018-02-22T21:53:38.960Z,0.90
2018-02-22T21:56:07.256Z,0.90
2018-02-22T21:58:34.820Z,0.80
2018-02-22T22:01:02.384Z,0.80
2018-02-22T22:03:29.943Z,0.80
2018-02-22T22:05:57.516Z,0.90
2018-02-22T22:08:25.040Z,0.90
2018-02-22T22:10:53.342Z,0.80
2018-02-22T22:13:20.865Z,0.80
2018-02-22T22:15:49.187Z,0.80
2018-02-22T22:18:16.707Z,0.80
2018-02-22T22:20:45.186Z,0.90
2018-02-22T22:23:13.566Z,0.90
2018-02-22T22:25:41.856Z,0.90
2018-02-22T22:28:09.358Z,0.80
2018-02-22T22:30:36.899Z,0.80
2018-02-22T22:33:04.431Z,0.80
2018-02-22T22:35:32.012Z,0.80
2018-02-22T22:37:59.525Z,0.80
2018-02-22T22:40:27.076Z,0.70
2018-02-22T22:42:54.688Z,0.70
2018-02-22T22:45:22.230Z,0.70
2018-02-22T22:47:49.740Z,0.70
2018-02-22T22:50:17.280Z,0.70
2018-02-22T22:52:44.776Z,0.70
2018-02-22T22:55:12.339Z,0.70
2018-02-22T22:57:39.873Z,0.60
2018-02-22T23:00:07.426Z,0.70
2018-02-22T23:02:34.952Z,0.70
2018-02-22T23:05:02.508Z,0.70
2018-02-22T23:07:30.027Z,0.70
2018-02-22T23:09:57.559Z,0.70
2018-02-22T23:12:25.073Z,0.60
2018-02-22T23:14:53.380Z,0.50
2018-02-22T23:17:20.880Z,0.50
2018-02-22T23:19:48.420Z,0.50
2018-02-22T23:22:16.051Z,0.40
2018-02-22T23:24:43.615Z,0.50
2018-02-22T23:27:11.149Z,0.40
2018-02-22T23:29:39.241Z,0.30
2018-02-22T23:32:06.791Z,0.30
2018-02-22T23:34:34.331Z,0.30
2018-02-22T23:37:02.611Z,0.20
2018-02-22T23:39:30.905Z,0.20
2018-02-22T23:42:04.105Z,0.10
2018-02-22T23:44:31.627Z,0.20
2018-02-22T23:46:59.914Z,0.30
2018-02-22T23:49:28.222Z,0.30
2018-02-22T23:51:55.743Z,0.30
2018-02-22T23:54:24.054Z,0.30
2018-02-22T23:56:51.605Z,0.30
2018-02-22T23:59:19.158Z,0.30
